createdAt,value
2023-03-05T00:00:24.028Z,15.7
2023-03-05T00:10:25.327Z,15.6
2023-03-05T00:20:25.508Z,15.6
2023-03-05T00:30:25.997Z,15.6
2023-03-05T00:40:26.496Z,15.5
2023-03-05T00:50:26.462Z,15.6
2023-03-05T01:00:27.669Z,15.5
2023-03-05T01:10:27.629Z,15.5
2023-03-05T01:20:27.856Z,15.4
2023-03-05T01:30:27.880Z,15.4
2023-03-05T01:40:28.340Z,15.8
2023-03-05T01:50:29.001Z,15.4
2023-03-05T02:00:28.934Z,15.4
2023-03-05T02:10:29.362Z,15.6
2023-03-05T02:20:29.849Z,15.4
2023-03-05T02:30:30.321Z,15.8
2023-03-05T02:40:30.168Z,15.4
2023-03-05T02:50:30.618Z,15.5
2023-03-05T03:10:06.887Z,15.5
2023-03-05T03:20:07.314Z,15.4
2023-03-05T03:30:07.901Z,15.8
2023-03-05T03:40:08.734Z,15.8
2023-03-05T03:50:08.607Z,15.6
2023-03-05T04:00:08.557Z,15.5
2023-03-05T04:10:10.621Z,15.4
2023-03-05T04:20:12.864Z,15.9
2023-03-05T04:30:14.940Z,15.4
2023-03-05T04:40:16.532Z,15.4
2023-03-05T04:50:18.019Z,15.4
2023-03-05T05:00:19.306Z,15.8
2023-03-05T05:10:20.602Z,15.8
2023-03-05T05:20:21.440Z,15.4
2023-03-05T05:30:20.458Z,15.4
2023-03-05T05:40:20.995Z,15.3
2023-03-05T05:50:23.279Z,15.4
2023-03-05T06:00:24.714Z,15.3
2023-03-05T06:10:30.691Z,14.8
2023-03-05T06:20:39.753Z,15.9
2023-03-05T06:30:42.492Z,15.6
2023-03-05T06:40:47.682Z,15.9
2023-03-05T06:50:58.534Z,16.1
2023-03-05T07:01:10.846Z,15.8
2023-03-05T07:11:26.443Z,15.4
2023-03-05T07:21:41.212Z,16.1
2023-03-05T07:31:56.168Z,15.9
2023-03-05T07:42:13.400Z,14.6
2023-03-05T07:52:30.262Z,16.8
2023-03-05T08:02:48.400Z,17.1
2023-03-05T08:13:02.630Z,17.8
2023-03-05T08:23:17.979Z,17.8
2023-03-05T08:33:35.357Z,17.8
2023-03-05T08:43:48.476Z,17.9
2023-03-05T08:54:04.476Z,17.4
2023-03-05T09:10:23.921Z,17.8
2023-03-05T09:20:40.145Z,17.8
2023-03-05T09:30:57.312Z,18.3
2023-03-05T09:41:13.728Z,18.2
2023-03-05T09:51:32.221Z,18
2023-03-05T10:01:45.315Z,18.2
2023-03-05T10:11:57.353Z,18
2023-03-05T10:22:09.554Z,18.6
2023-03-05T10:32:21.694Z,18.4
2023-03-05T10:42:33.705Z,18.4
2023-03-05T10:52:44.596Z,18.3
2023-03-05T11:02:53.685Z,18.4
2023-03-05T11:13:00.337Z,18.2
2023-03-05T11:23:06.177Z,18.8
2023-03-05T11:33:11.372Z,18.5
2023-03-05T11:43:16.395Z,18.2
2023-03-05T11:53:22.870Z,18.6
2023-03-05T12:03:30.773Z,18.3
2023-03-05T12:13:42.300Z,18.3
2023-03-05T12:23:45.312Z,18.1
2023-03-05T12:33:54.332Z,18.3
2023-03-05T12:44:04.855Z,18
2023-03-05T12:54:11.641Z,18.1
2023-03-05T13:04:18.916Z,18.1
2023-03-05T13:14:23.557Z,17.9
2023-03-05T13:24:25.338Z,17.8
2023-03-05T13:34:29.802Z,17.8
2023-03-05T13:44:25.982Z,18
2023-03-05T13:54:27.380Z,17.6
2023-03-05T14:04:28.631Z,17.9
2023-03-05T14:14:29.297Z,17.9
2023-03-05T14:24:30.717Z,17.8
2023-03-05T14:34:31.313Z,17.6
2023-03-05T14:44:31.504Z,17.3
2023-03-05T14:54:32.695Z,17.3
2023-03-05T15:10:08.554Z,17.4
2023-03-05T15:20:09.058Z,17.2
2023-03-05T15:30:10.024Z,17.1
2023-03-05T15:40:10.937Z,17.2
2023-03-05T15:50:12.175Z,17.1
2023-03-05T16:00:13.274Z,16.9
2023-03-05T16:10:15.390Z,17.4
2023-03-05T16:20:16.861Z,16.9
2023-03-05T16:30:18.966Z,16.9
2023-03-05T16:40:20.771Z,16.9
2023-03-05T16:50:23.156Z,16.9
2023-03-05T17:00:23.992Z,16.7
2023-03-05T17:10:24.170Z,16.8
2023-03-05T17:20:24.447Z,16.7
2023-03-05T17:30:24.736Z,16.6
2023-03-05T17:40:25.824Z,16.6
2023-03-05T17:50:25.134Z,16.6
2023-03-05T18:00:25.894Z,16.5
2023-03-05T18:10:26.635Z,16.9
2023-03-05T18:20:27.276Z,16.4
2023-03-05T18:30:27.884Z,16.4
2023-03-05T18:40:27.558Z,16.3
2023-03-05T18:50:27.858Z,16.3
2023-03-05T19:00:27.703Z,16.3
2023-03-05T19:10:28.393Z,16.1
2023-03-05T19:20:29.339Z,16.1
2023-03-05T19:30:29.272Z,16.2
2023-03-05T19:40:29.281Z,16.1
2023-03-05T19:50:31.404Z,16.1
2023-03-05T20:00:30.731Z,16
2023-03-05T20:10:31.009Z,16.1
2023-03-05T20:20:31.759Z,15.9
2023-03-05T20:30:31.817Z,15.9
2023-03-05T20:40:31.795Z,15.9
2023-03-05T20:50:32.507Z,15.8
2023-03-05T21:10:07.979Z,15.8
2023-03-05T21:20:08.249Z,15.8
2023-03-05T21:30:09.172Z,15.8
2023-03-05T21:40:09.326Z,15.9
2023-03-05T21:50:09.077Z,15.8
2023-03-05T22:00:09.560Z,15.7
2023-03-05T22:10:11.411Z,15.7
2023-03-05T22:20:13.136Z,15.6
2023-03-05T22:30:15.504Z,15.6
2023-03-05T22:40:17.218Z,15.6
2023-03-05T22:50:18.757Z,15.6
2023-03-05T23:00:20.526Z,15.7
2023-03-05T23:10:20.684Z,15.5
2023-03-05T23:20:21.564Z,15.9
2023-03-05T23:30:22.250Z,15.5
2023-03-05T23:40:21.947Z,15.4
2023-03-05T23:50:21.962Z,15.9
